Terminal Aerodrome Forecast
Issued by NWS

Home | Current Version | Previous Version | Text Only | Print | Product List | Glossary On
Versions: 1 2 3 4 5 6 7 8 9 10 11 12 13 14 15
000
FTUS43 KICT 201400 AAA
TAFHUT
TAF AMD
KHUT 201402Z 2014/2112 VRB03KT 3SM BR SCT002
      TEMPO 2014/2015 1/4SM FG BKN002
     FM201500 01007KT P6SM SKC
     FM201700 06013KT P6SM SKC
     FM210000 05005KT P6SM SKC=

USA.gov is the U.S. government's official web portal to all federal, state and local government web resources and services.